To NAV CANADA Home Page Login to a new session Search on AWWS site Disclaimer Vers la page française équivalente Tips FAQ What's new on the site To the Forecasts and Observations / NOTAM section To "File a Flight Plan" website Publications and other links Update of the User's profile FIC Telephone Numbers My Weather Data Folder Route Weather Data Regional Weather Data Local Weather Data To the Forecasts and Observations / NOTAM section
Request Generated 04/24/2019 at 16:00:08 UTC . Weather information available at that time is displayed.

METAR/TAF

KUGLUKTUK/NU    

METAR CYCO 241500Z 03006KT 15SM FEW015 FEW220 M24/M27 A3025 RMK ST1CS1 ST TR SLP248=
METAR CYCO 241400Z 04008KT 15SM FEW025 FEW150 SCT250 M24/M28 A3023 RMK SC1AS1CS2 SC TR SLP243=
METAR CYCO 241300Z 04007KT 15SM FEW150 SCT250 M25/M28 A3022 RMK AS1CS3 SLP239=

TAF CYCO 241239Z 2413/2501 05010KT P6SM FEW015 SCT120 TEMPO 2413/2420
4SM IC BR FEW005 BKN015 PROB30 2413/2415 1SM BR BKN005
FM242000 35005KT P6SM FEW020
BECMG 2423/2501 23012KT
RMK NXT FCST BY 241900Z=
Your time UTC time
Weather data provided by Environment Canada and NAV CANADA